sensor_id;sensor_type;location;lat;lon;timestamp;temperature;humidity
25991;DHT22;13779;-33.886;151.198;2022-12-05T00:00:05;22.90;99.90
25991;DHT22;13779;-33.886;151.198;2022-12-05T00:02:36;22.90;99.90
25991;DHT22;13779;-33.886;151.198;2022-12-05T00:05:09;23.00;99.90
25991;DHT22;13779;-33.886;151.198;2022-12-05T00:07:39;23.00;99.90
25991;DHT22;13779;-33.886;151.198;2022-12-05T00:10:10;23.00;99.90
25991;DHT22;13779;-33.886;151.198;2022-12-05T00:12:41;23.10;99.90
25991;DHT22;13779;-33.886;151.198;2022-12-05T00:15:11;23.10;99.90
25991;DHT22;13779;-33.886;151.198;2022-12-05T00:17:41;23.10;99.90
25991;DHT22;13779;-33.886;151.198;2022-12-05T00:20:11;23.20;99.90
25991;DHT22;13779;-33.886;151.198;2022-12-05T00:22:42;23.20;99.90
25991;DHT22;13779;-33.886;151.198;2022-12-05T00:25:12;23.20;99.90
25991;DHT22;13779;-33.886;151.198;2022-12-05T00:27:42;23.20;99.90
25991;DHT22;13779;-33.886;151.198;2022-12-05T00:30:12;23.10;99.90
25991;DHT22;13779;-33.886;151.198;2022-12-05T00:32:42;23.20;99.90
25991;DHT22;13779;-33.886;151.198;2022-12-05T00:35:12;23.30;99.90
25991;DHT22;13779;-33.886;151.198;2022-12-05T00:37:42;23.40;99.90
25991;DHT22;13779;-33.886;151.198;2022-12-05T00:40:13;23.50;99.90
25991;DHT22;13779;-33.886;151.198;2022-12-05T00:42:43;23.50;99.90
25991;DHT22;13779;-33.886;151.198;2022-12-05T00:45:18;23.60;99.90
25991;DHT22;13779;-33.886;151.198;2022-12-05T00:47:48;23.60;99.90
25991;DHT22;13779;-33.886;151.198;2022-12-05T00:50:18;23.70;99.90
25991;DHT22;13779;-33.886;151.198;2022-12-05T00:52:48;23.70;99.90
25991;DHT22;13779;-33.886;151.198;2022-12-05T00:55:19;23.70;99.90
25991;DHT22;13779;-33.886;151.198;2022-12-05T00:57:49;23.70;99.90
25991;DHT22;13779;-33.886;151.198;2022-12-05T01:00:19;23.80;99.90
25991;DHT22;13779;-33.886;151.198;2022-12-05T01:02:49;23.80;99.90
25991;DHT22;13779;-33.886;151.198;2022-12-05T01:05:19;23.90;99.90
25991;DHT22;13779;-33.886;151.198;2022-12-05T01:07:49;23.90;99.90
25991;DHT22;13779;-33.886;151.198;2022-12-05T01:10:20;23.90;99.90
25991;DHT22;13779;-33.886;151.198;2022-12-05T01:12:50;23.80;99.90
25991;DHT22;13779;-33.886;151.198;2022-12-05T01:15:20;23.90;99.90
25991;DHT22;13779;-33.886;151.198;2022-12-05T01:17:50;23.90;99.90
25991;DHT22;13779;-33.886;151.198;2022-12-05T01:20:20;24.00;99.90
25991;DHT22;13779;-33.886;151.198;2022-12-05T01:22:51;24.00;99.90
25991;DHT22;13779;-33.886;151.198;2022-12-05T01:25:21;24.00;99.90
25991;DHT22;13779;-33.886;151.198;2022-12-05T01:27:51;24.10;99.90
25991;DHT22;13779;-33.886;151.198;2022-12-05T01:30:21;24.10;99.90
25991;DHT22;13779;-33.886;151.198;2022-12-05T01:32:52;24.20;99.90
25991;DHT22;13779;-33.886;151.198;2022-12-05T01:35:22;24.30;99.90
25991;DHT22;13779;-33.886;151.198;2022-12-05T01:37:52;24.30;99.90
25991;DHT22;13779;-33.886;151.198;2022-12-05T01:40:22;24.30;99.90
25991;DHT22;13779;-33.886;151.198;2022-12-05T01:42:53;24.30;99.90
25991;DHT22;13779;-33.886;151.198;2022-12-05T01:45:38;24.40;99.90
25991;DHT22;13779;-33.886;151.198;2022-12-05T01:48:15;24.30;99.90
25991;DHT22;13779;-33.886;151.198;2022-12-05T01:50:48;24.30;99.90
25991;DHT22;13779;-33.886;151.198;2022-12-05T01:53:20;24.30;99.90
25991;DHT22;13779;-33.886;151.198;2022-12-05T01:55:51;24.40;99.90
25991;DHT22;13779;-33.886;151.198;2022-12-05T01:58:21;24.40;99.90
25991;DHT22;13779;-33.886;151.198;2022-12-05T02:00:52;24.40;99.90
25991;DHT22;13779;-33.886;151.198;2022-12-05T02:03:22;24.50;99.90
25991;DHT22;13779;-33.886;151.198;2022-12-05T02:05:55;24.50;99.90
25991;DHT22;13779;-33.886;151.198;2022-12-05T02:08:27;24.50;99.90
25991;DHT22;13779;-33.886;151.198;2022-12-05T02:10:57;24.50;99.90
25991;DHT22;13779;-33.886;151.198;2022-12-05T02:35:06;24.70;99.90
25991;DHT22;13779;-33.886;151.198;2022-12-05T02:44:06;24.70;99.90
25991;DHT22;13779;-33.886;151.198;2022-12-05T02:46:39;24.70;99.90
25991;DHT22;13779;-33.886;151.198;2022-12-05T02:49:12;24.70;99.90
25991;DHT22;13779;-33.886;151.198;2022-12-05T02:51:50;24.70;99.90
25991;DHT22;13779;-33.886;151.198;2022-12-05T02:54:28;24.70;99.90
25991;DHT22;13779;-33.886;151.198;2022-12-05T02:57:00;24.80;99.90
25991;DHT22;13779;-33.886;151.198;2022-12-05T02:59:30;24.90;99.90
25991;DHT22;13779;-33.886;151.198;2022-12-05T03:02:01;24.90;99.90
25991;DHT22;13779;-33.886;151.198;2022-12-05T03:04:31;25.00;99.90
25991;DHT22;13779;-33.886;151.198;2022-12-05T03:07:07;25.00;99.90
25991;DHT22;13779;-33.886;151.198;2022-12-05T03:09:53;25.00;99.90
25991;DHT22;13779;-33.886;151.198;2022-12-05T03:12:35;24.80;99.90
25991;DHT22;13779;-33.886;151.198;2022-12-05T03:15:16;24.90;99.90
25991;DHT22;13779;-33.886;151.198;2022-12-05T03:17:59;25.00;99.90
25991;DHT22;13779;-33.886;151.198;2022-12-05T03:20:41;25.00;99.90
25991;DHT22;13779;-33.886;151.198;2022-12-05T03:23:35;25.00;99.90
25991;DHT22;13779;-33.886;151.198;2022-12-05T03:35:36;25.10;99.90
25991;DHT22;13779;-33.886;151.198;2022-12-05T03:41:41;24.90;99.90
25991;DHT22;13779;-33.886;151.198;2022-12-05T03:44:22;24.80;99.90
25991;DHT22;13779;-33.886;151.198;2022-12-05T03:50:01;25.00;99.90
25991;DHT22;13779;-33.886;151.198;2022-12-05T03:53:12;25.00;99.90
25991;DHT22;13779;-33.886;151.198;2022-12-05T03:55:54;24.90;99.90
25991;DHT22;13779;-33.886;151.198;2022-12-05T03:58:40;24.90;99.90
25991;DHT22;13779;-33.886;151.198;2022-12-05T04:01:15;25.00;99.90
25991;DHT22;13779;-33.886;151.198;2022-12-05T04:03:51;24.80;99.90
25991;DHT22;13779;-33.886;151.198;2022-12-05T04:06:35;24.90;99.90
25991;DHT22;13779;-33.886;151.198;2022-12-05T04:09:17;24.80;99.90
25991;DHT22;13779;-33.886;151.198;2022-12-05T04:11:56;24.80;99.90
25991;DHT22;13779;-33.886;151.198;2022-12-05T04:14:39;24.80;99.90
25991;DHT22;13779;-33.886;151.198;2022-12-05T04:17:32;24.70;99.90
25991;DHT22;13779;-33.886;151.198;2022-12-05T04:20:24;24.70;99.90
25991;DHT22;13779;-33.886;151.198;2022-12-05T04:23:15;24.60;99.90
25991;DHT22;13779;-33.886;151.198;2022-12-05T04:26:29;24.50;99.90
25991;DHT22;13779;-33.886;151.198;2022-12-05T04:29:06;24.50;99.90
25991;DHT22;13779;-33.886;151.198;2022-12-05T04:31:43;24.50;99.90
25991;DHT22;13779;-33.886;151.198;2022-12-05T04:34:19;24.60;99.90
25991;DHT22;13779;-33.886;151.198;2022-12-05T04:37:04;24.60;99.90
25991;DHT22;13779;-33.886;151.198;2022-12-05T04:42:40;24.50;99.90
25991;DHT22;13779;-33.886;151.198;2022-12-05T04:45:13;24.50;99.90
25991;DHT22;13779;-33.886;151.198;2022-12-05T04:47:49;24.40;99.90
25991;DHT22;13779;-33.886;151.198;2022-12-05T04:50:28;24.20;99.90
25991;DHT22;13779;-33.886;151.198;2022-12-05T04:53:00;24.10;99.90
25991;DHT22;13779;-33.886;151.198;2022-12-05T04:55:34;24.10;99.90
25991;DHT22;13779;-33.886;151.198;2022-12-05T05:03:49;23.90;99.90
25991;DHT22;13779;-33.886;151.198;2022-12-05T05:06:21;23.90;99.90
25991;DHT22;13779;-33.886;151.198;2022-12-05T05:08:53;23.80;99.90
25991;DHT22;13779;-33.886;151.198;2022-12-05T05:11:27;23.90;99.90
25991;DHT22;13779;-33.886;151.198;2022-12-05T05:13:58;23.80;99.90
25991;DHT22;13779;-33.886;151.198;2022-12-05T05:16:32;23.80;99.90
25991;DHT22;13779;-33.886;151.198;2022-12-05T05:19:03;23.70;99.90
25991;DHT22;13779;-33.886;151.198;2022-12-05T05:21:37;23.60;99.90
25991;DHT22;13779;-33.886;151.198;2022-12-05T05:24:09;23.60;99.90
25991;DHT22;13779;-33.886;151.198;2022-12-05T05:26:42;23.60;99.90
25991;DHT22;13779;-33.886;151.198;2022-12-05T05:29:14;23.60;99.90
25991;DHT22;13779;-33.886;151.198;2022-12-05T05:31:45;23.70;99.90
25991;DHT22;13779;-33.886;151.198;2022-12-05T05:34:16;23.70;99.90
25991;DHT22;13779;-33.886;151.198;2022-12-05T05:36:51;23.70;99.90
25991;DHT22;13779;-33.886;151.198;2022-12-05T05:39:21;23.80;99.90
25991;DHT22;13779;-33.886;151.198;2022-12-05T05:41:52;23.80;99.90
25991;DHT22;13779;-33.886;151.198;2022-12-05T05:44:22;23.90;99.90
25991;DHT22;13779;-33.886;151.198;2022-12-05T05:46:53;24.10;99.90
25991;DHT22;13779;-33.886;151.198;2022-12-05T05:49:24;24.20;99.90
25991;DHT22;13779;-33.886;151.198;2022-12-05T05:51:54;24.30;99.90
25991;DHT22;13779;-33.886;151.198;2022-12-05T05:54:25;24.40;99.90
25991;DHT22;13779;-33.886;151.198;2022-12-05T05:56:55;24.60;99.90
25991;DHT22;13779;-33.886;151.198;2022-12-05T05:59:26;24.80;99.90
25991;DHT22;13779;-33.886;151.198;2022-12-05T06:01:56;25.10;99.90
25991;DHT22;13779;-33.886;151.198;2022-12-05T06:04:27;25.20;99.90
25991;DHT22;13779;-33.886;151.198;2022-12-05T06:06:57;25.30;99.90
25991;DHT22;13779;-33.886;151.198;2022-12-05T06:09:28;25.20;99.90
25991;DHT22;13779;-33.886;151.198;2022-12-05T06:11:58;25.10;99.90
25991;DHT22;13779;-33.886;151.198;2022-12-05T06:14:29;25.00;99.90
25991;DHT22;13779;-33.886;151.198;2022-12-05T06:16:59;24.90;99.90
25991;DHT22;13779;-33.886;151.198;2022-12-05T06:19:30;24.90;99.90
25991;DHT22;13779;-33.886;151.198;2022-12-05T06:22:02;24.80;99.90
25991;DHT22;13779;-33.886;151.198;2022-12-05T06:24:33;24.80;99.90
25991;DHT22;13779;-33.886;151.198;2022-12-05T06:27:04;24.80;99.90
25991;DHT22;13779;-33.886;151.198;2022-12-05T06:29:34;24.70;99.90
25991;DHT22;13779;-33.886;151.198;2022-12-05T06:32:06;24.70;99.90
25991;DHT22;13779;-33.886;151.198;2022-12-05T06:34:37;24.80;99.90
25991;DHT22;13779;-33.886;151.198;2022-12-05T06:37:08;24.80;99.90
25991;DHT22;13779;-33.886;151.198;2022-12-05T06:39:38;24.80;99.90
25991;DHT22;13779;-33.886;151.198;2022-12-05T06:42:09;24.70;99.90
25991;DHT22;13779;-33.886;151.198;2022-12-05T06:44:39;24.70;99.90
25991;DHT22;13779;-33.886;151.198;2022-12-05T06:47:10;24.60;99.90
25991;DHT22;13779;-33.886;151.198;2022-12-05T06:49:40;24.60;99.90
25991;DHT22;13779;-33.886;151.198;2022-12-05T06:52:11;24.50;99.90
25991;DHT22;13779;-33.886;151.198;2022-12-05T06:54:41;24.50;99.90
25991;DHT22;13779;-33.886;151.198;2022-12-05T06:57:12;24.50;99.90
25991;DHT22;13779;-33.886;151.198;2022-12-05T06:59:43;24.50;99.90
25991;DHT22;13779;-33.886;151.198;2022-12-05T07:02:14;24.50;99.90
25991;DHT22;13779;-33.886;151.198;2022-12-05T07:04:44;24.50;99.90
25991;DHT22;13779;-33.886;151.198;2022-12-05T07:07:15;24.40;99.90
25991;DHT22;13779;-33.886;151.198;2022-12-05T07:09:46;24.40;99.90
25991;DHT22;13779;-33.886;151.198;2022-12-05T07:12:23;24.40;99.90
25991;DHT22;13779;-33.886;151.198;2022-12-05T07:14:53;24.30;99.90
25991;DHT22;13779;-33.886;151.198;2022-12-05T07:17:24;24.30;99.90
25991;DHT22;13779;-33.886;151.198;2022-12-05T07:19:54;24.30;99.90
25991;DHT22;13779;-33.886;151.198;2022-12-05T07:22:25;24.20;99.90
25991;DHT22;13779;-33.886;151.198;2022-12-05T07:24:55;24.20;99.90
25991;DHT22;13779;-33.886;151.198;2022-12-05T07:27:26;24.20;99.90
25991;DHT22;13779;-33.886;151.198;2022-12-05T07:29:56;24.20;99.90
25991;DHT22;13779;-33.886;151.198;2022-12-05T07:32:31;24.30;99.90
25991;DHT22;13779;-33.886;151.198;2022-12-05T07:35:02;24.30;99.90
25991;DHT22;13779;-33.886;151.198;2022-12-05T07:37:32;24.30;99.90
25991;DHT22;13779;-33.886;151.198;2022-12-05T07:40:03;24.30;99.90
25991;DHT22;13779;-33.886;151.198;2022-12-05T07:42:33;24.30;99.90
25991;DHT22;13779;-33.886;151.198;2022-12-05T07:45:04;24.30;99.90
25991;DHT22;13779;-33.886;151.198;2022-12-05T07:47:34;24.40;99.90
25991;DHT22;13779;-33.886;151.198;2022-12-05T07:50:05;24.40;99.90
25991;DHT22;13779;-33.886;151.198;2022-12-05T07:52:35;24.30;99.90
25991;DHT22;13779;-33.886;151.198;2022-12-05T07:55:06;24.30;99.90
25991;DHT22;13779;-33.886;151.198;2022-12-05T07:57:36;24.40;99.90
25991;DHT22;13779;-33.886;151.198;2022-12-05T08:00:07;24.40;99.90
25991;DHT22;13779;-33.886;151.198;2022-12-05T08:02:37;24.30;99.90
25991;DHT22;13779;-33.886;151.198;2022-12-05T08:05:08;24.30;99.90
25991;DHT22;13779;-33.886;151.198;2022-12-05T08:07:38;24.30;99.90
25991;DHT22;13779;-33.886;151.198;2022-12-05T08:10:08;24.40;99.90
25991;DHT22;13779;-33.886;151.198;2022-12-05T08:12:39;24.30;99.90
25991;DHT22;13779;-33.886;151.198;2022-12-05T08:15:09;24.20;99.90
25991;DHT22;13779;-33.886;151.198;2022-12-05T08:17:39;24.20;99.90
25991;DHT22;13779;-33.886;151.198;2022-12-05T08:20:10;24.10;99.90
25991;DHT22;13779;-33.886;151.198;2022-12-05T08:22:40;24.00;99.90
25991;DHT22;13779;-33.886;151.198;2022-12-05T08:25:10;24.00;99.90
25991;DHT22;13779;-33.886;151.198;2022-12-05T08:27:41;24.00;99.90
25991;DHT22;13779;-33.886;151.198;2022-12-05T08:30:11;24.00;99.90
25991;DHT22;13779;-33.886;151.198;2022-12-05T08:32:42;24.00;99.90
25991;DHT22;13779;-33.886;151.198;2022-12-05T08:35:12;24.00;99.90
25991;DHT22;13779;-33.886;151.198;2022-12-05T08:37:43;24.00;99.90
25991;DHT22;13779;-33.886;151.198;2022-12-05T08:40:13;23.90;99.90
25991;DHT22;13779;-33.886;151.198;2022-12-05T08:42:43;23.70;99.90
25991;DHT22;13779;-33.886;151.198;2022-12-05T08:45:13;23.60;99.90
25991;DHT22;13779;-33.886;151.198;2022-12-05T08:47:44;23.50;99.90
25991;DHT22;13779;-33.886;151.198;2022-12-05T08:50:14;23.40;99.90
25991;DHT22;13779;-33.886;151.198;2022-12-05T08:52:44;23.30;99.90
25991;DHT22;13779;-33.886;151.198;2022-12-05T08:55:14;23.30;99.90
25991;DHT22;13779;-33.886;151.198;2022-12-05T08:57:45;23.20;99.90
25991;DHT22;13779;-33.886;151.198;2022-12-05T09:00:15;23.20;99.90
25991;DHT22;13779;-33.886;151.198;2022-12-05T09:02:50;23.10;99.90
25991;DHT22;13779;-33.886;151.198;2022-12-05T09:05:23;23.10;99.90
25991;DHT22;13779;-33.886;151.198;2022-12-05T09:07:56;23.10;99.90
25991;DHT22;13779;-33.886;151.198;2022-12-05T09:10:27;23.00;99.90
25991;DHT22;13779;-33.886;151.198;2022-12-05T09:12:58;23.10;99.90
25991;DHT22;13779;-33.886;151.198;2022-12-05T09:15:28;23.10;99.90
25991;DHT22;13779;-33.886;151.198;2022-12-05T09:17:58;23.10;99.90
25991;DHT22;13779;-33.886;151.198;2022-12-05T09:20:28;23.00;99.90
25991;DHT22;13779;-33.886;151.198;2022-12-05T09:22:58;23.00;99.90
25991;DHT22;13779;-33.886;151.198;2022-12-05T09:25:29;23.00;99.90
25991;DHT22;13779;-33.886;151.198;2022-12-05T09:27:59;23.10;99.90
25991;DHT22;13779;-33.886;151.198;2022-12-05T09:30:29;23.10;99.90
25991;DHT22;13779;-33.886;151.198;2022-12-05T09:32:59;23.10;99.90
25991;DHT22;13779;-33.886;151.198;2022-12-05T09:35:30;23.10;99.90
25991;DHT22;13779;-33.886;151.198;2022-12-05T09:38:03;23.10;99.90
25991;DHT22;13779;-33.886;151.198;2022-12-05T09:40:34;23.30;99.90
25991;DHT22;13779;-33.886;151.198;2022-12-05T09:43:25;23.30;99.90
25991;DHT22;13779;-33.886;151.198;2022-12-05T09:48:52;23.20;99.90
25991;DHT22;13779;-33.886;151.198;2022-12-05T09:51:23;23.20;99.90
25991;DHT22;13779;-33.886;151.198;2022-12-05T09:53:54;23.10;99.90
25991;DHT22;13779;-33.886;151.198;2022-12-05T09:56:30;23.00;99.90
25991;DHT22;13779;-33.886;151.198;2022-12-05T09:59:00;22.80;99.90
25991;DHT22;13779;-33.886;151.198;2022-12-05T10:04:45;22.40;99.90
25991;DHT22;13779;-33.886;151.198;2022-12-05T10:15:48;21.90;99.90
25991;DHT22;13779;-33.886;151.198;2022-12-05T10:21:20;21.80;99.90
25991;DHT22;13779;-33.886;151.198;2022-12-05T10:24:19;21.80;99.90
25991;DHT22;13779;-33.886;151.198;2022-12-05T10:27:13;21.80;99.90
25991;DHT22;13779;-33.886;151.198;2022-12-05T10:33:02;21.70;99.90
25991;DHT22;13779;-33.886;151.198;2022-12-05T10:35:39;21.70;99.90
25991;DHT22;13779;-33.886;151.198;2022-12-05T10:38:29;21.60;99.90
25991;DHT22;13779;-33.886;151.198;2022-12-05T10:41:04;21.60;99.90
25991;DHT22;13779;-33.886;151.198;2022-12-05T10:43:38;21.60;99.90
25991;DHT22;13779;-33.886;151.198;2022-12-05T10:46:12;21.60;99.90
25991;DHT22;13779;-33.886;151.198;2022-12-05T10:48:44;21.60;99.90
25991;DHT22;13779;-33.886;151.198;2022-12-05T10:51:22;21.70;99.90
25991;DHT22;13779;-33.886;151.198;2022-12-05T10:54:25;21.70;99.90
25991;DHT22;13779;-33.886;151.198;2022-12-05T10:56:56;21.70;99.90
25991;DHT22;13779;-33.886;151.198;2022-12-05T10:59:45;21.60;99.90
25991;DHT22;13779;-33.886;151.198;2022-12-05T11:02:31;21.50;99.90
25991;DHT22;13779;-33.886;151.198;2022-12-05T11:05:02;21.50;99.90
25991;DHT22;13779;-33.886;151.198;2022-12-05T11:10:31;21.40;99.90
25991;DHT22;13779;-33.886;151.198;2022-12-05T11:13:23;21.30;99.90
25991;DHT22;13779;-33.886;151.198;2022-12-05T11:15:55;21.10;99.90
25991;DHT22;13779;-33.886;151.198;2022-12-05T11:18:32;21.00;99.90
25991;DHT22;13779;-33.886;151.198;2022-12-05T11:21:11;20.90;99.90
25991;DHT22;13779;-33.886;151.198;2022-12-05T11:23:47;20.80;99.90
25991;DHT22;13779;-33.886;151.198;2022-12-05T11:26:36;20.70;99.90
25991;DHT22;13779;-33.886;151.198;2022-12-05T11:29:36;20.60;99.90
25991;DHT22;13779;-33.886;151.198;2022-12-05T11:32:19;20.60;99.90
25991;DHT22;13779;-33.886;151.198;2022-12-05T11:37:59;20.50;99.90
25991;DHT22;13779;-33.886;151.198;2022-12-05T11:46:10;20.60;99.90
25991;DHT22;13779;-33.886;151.198;2022-12-05T11:51:47;20.50;99.90
25991;DHT22;13779;-33.886;151.198;2022-12-05T11:57:40;20.50;99.90
25991;DHT22;13779;-33.886;151.198;2022-12-05T12:00:26;20.50;99.90
25991;DHT22;13779;-33.886;151.198;2022-12-05T12:03:36;20.60;99.90
25991;DHT22;13779;-33.886;151.198;2022-12-05T12:10:27;20.60;99.90
25991;DHT22;13779;-33.886;151.198;2022-12-05T12:13:16;20.50;99.90
25991;DHT22;13779;-33.886;151.198;2022-12-05T12:19:13;20.60;99.90
25991;DHT22;13779;-33.886;151.198;2022-12-05T12:30:27;20.50;99.90
25991;DHT22;13779;-33.886;151.198;2022-12-05T12:35:50;20.50;99.90
25991;DHT22;13779;-33.886;151.198;2022-12-05T12:44:43;20.30;99.90
25991;DHT22;13779;-33.886;151.198;2022-12-05T12:55:49;20.30;99.90
25991;DHT22;13779;-33.886;151.198;2022-12-05T12:58:44;20.20;99.90
25991;DHT22;13779;-33.886;151.198;2022-12-05T13:04:29;20.30;99.90
25991;DHT22;13779;-33.886;151.198;2022-12-05T13:07:16;20.30;99.90
25991;DHT22;13779;-33.886;151.198;2022-12-05T13:09:58;20.30;99.90
25991;DHT22;13779;-33.886;151.198;2022-12-05T13:12:33;20.30;99.90
25991;DHT22;13779;-33.886;151.198;2022-12-05T13:15:12;20.30;99.90
25991;DHT22;13779;-33.886;151.198;2022-12-05T13:17:47;20.30;99.90
25991;DHT22;13779;-33.886;151.198;2022-12-05T13:20:22;20.30;99.90
25991;DHT22;13779;-33.886;151.198;2022-12-05T13:22:57;20.30;99.90
25991;DHT22;13779;-33.886;151.198;2022-12-05T13:25:35;20.30;99.90
25991;DHT22;13779;-33.886;151.198;2022-12-05T13:28:36;20.30;99.90
25991;DHT22;13779;-33.886;151.198;2022-12-05T13:31:14;20.30;99.90
25991;DHT22;13779;-33.886;151.198;2022-12-05T13:33:49;20.30;99.90
25991;DHT22;13779;-33.886;151.198;2022-12-05T13:36:22;20.30;99.90
25991;DHT22;13779;-33.886;151.198;2022-12-05T13:42:03;20.30;99.90
25991;DHT22;13779;-33.886;151.198;2022-12-05T13:53:24;20.30;99.90
25991;DHT22;13779;-33.886;151.198;2022-12-05T14:04:02;20.20;99.90
25991;DHT22;13779;-33.886;151.198;2022-12-05T14:17:31;20.10;99.90
25991;DHT22;13779;-33.886;151.198;2022-12-05T14:26:03;20.00;99.90
25991;DHT22;13779;-33.886;151.198;2022-12-05T14:34:23;19.90;99.90
25991;DHT22;13779;-33.886;151.198;2022-12-05T14:44:57;19.90;99.90
25991;DHT22;13779;-33.886;151.198;2022-12-05T14:47:31;19.70;99.90
25991;DHT22;13779;-33.886;151.198;2022-12-05T14:53:22;19.70;99.90
25991;DHT22;13779;-33.886;151.198;2022-12-05T14:56:20;19.70;99.90
25991;DHT22;13779;-33.886;151.198;2022-12-05T14:59:00;19.70;99.90
25991;DHT22;13779;-33.886;151.198;2022-12-05T15:01:40;19.70;99.90
25991;DHT22;13779;-33.886;151.198;2022-12-05T15:09:45;19.80;99.90
25991;DHT22;13779;-33.886;151.198;2022-12-05T15:23:52;19.70;99.90
25991;DHT22;13779;-33.886;151.198;2022-12-05T15:26:25;19.70;99.90
25991;DHT22;13779;-33.886;151.198;2022-12-05T15:32:01;19.80;99.90
25991;DHT22;13779;-33.886;151.198;2022-12-05T15:34:44;19.70;99.90
25991;DHT22;13779;-33.886;151.198;2022-12-05T15:40:19;19.70;99.90
25991;DHT22;13779;-33.886;151.198;2022-12-05T15:42:55;19.70;99.90
25991;DHT22;13779;-33.886;151.198;2022-12-05T15:45:28;19.70;99.90
25991;DHT22;13779;-33.886;151.198;2022-12-05T15:50:49;19.70;99.90
25991;DHT22;13779;-33.886;151.198;2022-12-05T15:53:38;19.70;99.90
25991;DHT22;13779;-33.886;151.198;2022-12-05T15:59:45;19.70;99.90
25991;DHT22;13779;-33.886;151.198;2022-12-05T16:02:40;19.70;99.90
25991;DHT22;13779;-33.886;151.198;2022-12-05T16:05:45;19.70;99.90
25991;DHT22;13779;-33.886;151.198;2022-12-05T16:08:18;19.70;99.90
25991;DHT22;13779;-33.886;151.198;2022-12-05T16:10:48;19.70;99.90
25991;DHT22;13779;-33.886;151.198;2022-12-05T16:13:22;19.70;99.90
25991;DHT22;13779;-33.886;151.198;2022-12-05T16:15:54;19.70;99.90
25991;DHT22;13779;-33.886;151.198;2022-12-05T16:18:30;19.70;99.90
25991;DHT22;13779;-33.886;151.198;2022-12-05T16:21:01;19.70;99.90
25991;DHT22;13779;-33.886;151.198;2022-12-05T16:23:35;19.70;99.90
25991;DHT22;13779;-33.886;151.198;2022-12-05T16:26:24;19.70;99.90
25991;DHT22;13779;-33.886;151.198;2022-12-05T16:29:01;19.80;99.90
25991;DHT22;13779;-33.886;151.198;2022-12-05T16:31:32;19.70;99.90
25991;DHT22;13779;-33.886;151.198;2022-12-05T16:34:06;19.70;99.90
25991;DHT22;13779;-33.886;151.198;2022-12-05T16:36:46;19.70;99.90
25991;DHT22;13779;-33.886;151.198;2022-12-05T16:39:17;19.70;99.90
25991;DHT22;13779;-33.886;151.198;2022-12-05T16:41:49;19.70;99.90
25991;DHT22;13779;-33.886;151.198;2022-12-05T16:44:59;19.70;99.90
25991;DHT22;13779;-33.886;151.198;2022-12-05T16:47:52;19.60;99.90
25991;DHT22;13779;-33.886;151.198;2022-12-05T16:50:28;19.60;99.90
25991;DHT22;13779;-33.886;151.198;2022-12-05T16:55:41;19.50;99.90
25991;DHT22;13779;-33.886;151.198;2022-12-05T16:58:19;19.50;99.90
25991;DHT22;13779;-33.886;151.198;2022-12-05T17:00:50;19.40;99.90
25991;DHT22;13779;-33.886;151.198;2022-12-05T17:03:20;19.40;99.90
25991;DHT22;13779;-33.886;151.198;2022-12-05T17:06:01;19.40;99.90
25991;DHT22;13779;-33.886;151.198;2022-12-05T17:08:31;19.50;99.90
25991;DHT22;13779;-33.886;151.198;2022-12-05T17:11:02;19.50;99.90
25991;DHT22;13779;-33.886;151.198;2022-12-05T17:13:33;19.50;99.90
25991;DHT22;13779;-33.886;151.198;2022-12-05T17:16:04;19.50;99.90
25991;DHT22;13779;-33.886;151.198;2022-12-05T17:18:34;19.50;99.90
25991;DHT22;13779;-33.886;151.198;2022-12-05T17:21:05;19.40;99.90
25991;DHT22;13779;-33.886;151.198;2022-12-05T17:23:35;19.40;99.90
25991;DHT22;13779;-33.886;151.198;2022-12-05T17:26:07;19.40;99.90
25991;DHT22;13779;-33.886;151.198;2022-12-05T17:28:37;19.50;99.90
25991;DHT22;13779;-33.886;151.198;2022-12-05T17:31:10;19.40;99.90
25991;DHT22;13779;-33.886;151.198;2022-12-05T17:33:42;19.50;99.90
25991;DHT22;13779;-33.886;151.198;2022-12-05T17:36:12;19.40;99.90
25991;DHT22;13779;-33.886;151.198;2022-12-05T17:38:43;19.30;99.90
25991;DHT22;13779;-33.886;151.198;2022-12-05T17:41:19;19.30;99.90
25991;DHT22;13779;-33.886;151.198;2022-12-05T17:43:50;19.30;99.90
25991;DHT22;13779;-33.886;151.198;2022-12-05T17:46:22;19.30;99.90
25991;DHT22;13779;-33.886;151.198;2022-12-05T17:48:52;19.30;99.90
25991;DHT22;13779;-33.886;151.198;2022-12-05T17:51:23;19.30;99.90
25991;DHT22;13779;-33.886;151.198;2022-12-05T17:53:53;19.30;99.90
25991;DHT22;13779;-33.886;151.198;2022-12-05T17:56:24;19.40;99.90
25991;DHT22;13779;-33.886;151.198;2022-12-05T17:58:54;19.30;99.90
25991;DHT22;13779;-33.886;151.198;2022-12-05T18:01:26;19.30;99.90
25991;DHT22;13779;-33.886;151.198;2022-12-05T18:03:56;19.30;99.90
25991;DHT22;13779;-33.886;151.198;2022-12-05T18:06:26;19.30;99.90
25991;DHT22;13779;-33.886;151.198;2022-12-05T18:08:57;19.30;99.90
25991;DHT22;13779;-33.886;151.198;2022-12-05T18:11:27;19.30;99.90
25991;DHT22;13779;-33.886;151.198;2022-12-05T18:13:57;19.30;99.90
25991;DHT22;13779;-33.886;151.198;2022-12-05T18:16:28;19.30;99.90
25991;DHT22;13779;-33.886;151.198;2022-12-05T18:18:58;19.40;99.90
25991;DHT22;13779;-33.886;151.198;2022-12-05T18:21:29;19.40;99.90
25991;DHT22;13779;-33.886;151.198;2022-12-05T18:23:59;19.40;99.90
25991;DHT22;13779;-33.886;151.198;2022-12-05T18:26:30;19.40;99.90
25991;DHT22;13779;-33.886;151.198;2022-12-05T18:29:00;19.30;99.90
25991;DHT22;13779;-33.886;151.198;2022-12-05T18:31:30;19.40;99.90
25991;DHT22;13779;-33.886;151.198;2022-12-05T18:34:00;19.40;99.90
25991;DHT22;13779;-33.886;151.198;2022-12-05T18:36:30;19.40;99.90
25991;DHT22;13779;-33.886;151.198;2022-12-05T18:39:00;19.30;99.90
25991;DHT22;13779;-33.886;151.198;2022-12-05T18:41:31;19.30;99.90
25991;DHT22;13779;-33.886;151.198;2022-12-05T18:44:01;19.30;99.90
25991;DHT22;13779;-33.886;151.198;2022-12-05T18:46:31;19.20;99.90
25991;DHT22;13779;-33.886;151.198;2022-12-05T18:49:01;19.20;99.90
25991;DHT22;13779;-33.886;151.198;2022-12-05T18:51:32;19.10;99.90
25991;DHT22;13779;-33.886;151.198;2022-12-05T18:54:02;19.10;99.90
25991;DHT22;13779;-33.886;151.198;2022-12-05T18:56:33;19.10;99.90
25991;DHT22;13779;-33.886;151.198;2022-12-05T18:59:14;19.10;99.90
25991;DHT22;13779;-33.886;151.198;2022-12-05T19:01:46;19.00;99.90
25991;DHT22;13779;-33.886;151.198;2022-12-05T19:04:17;18.90;99.90